Port Orchard, WA (98366)

11:42 PM PST on February 19, 2017 (GMT -0800)
Beach Drive E | | Change Station
Active Advisory: Small Craft Advisory

Elev 59 ft 47.56 °N, 122.60 °W | Updated 30 seconds ago

Partly Cloudy
Partly Cloudy
37.7 °F
Feels Like 38 °F
N
0.0
Wind Variable Wind from West

Today
High -- | Low -- °F
--% Chance of Precip.
Yesterday
High -- | Low -- °F
Precip. -- in
Pressure 29.63 in
Visibility 10.0 miles
Clouds Few 3700 ft
Scattered Clouds 5500 ft
Windchill 38 °F
Dew Point 37 °F
Humidity 98%
Rainfall 0.30 in
Snow Depth Not available.
7:08 AM 5:40 PM
Last Quarter, 36% visible
METAR KPWT 200735Z AUTO 00000KT 10SM FEW037 SCT055 03/02 A2963 RMK AO1
Pressure 29.63 in
Visibility 10.0 miles
Clouds Few 3700 ft
Scattered Clouds 5500 ft
Windchill 38 °F
Dew Point 37 °F
Humidity 98%
Rainfall 0.30 in
Snow Depth Not available.
7:08 AM 5:40 PM
Last Quarter, 36% visible
METAR KPWT 200735Z AUTO 00000KT 10SM FEW037 SCT055 03/02 A2963 RMK AO1

Get Your Daily Forecast Email!

Thanks for signing up!

Be on the lookout for a verification email in your inbox.

You'll start receiving the daily forecast at 8 AM.

×

10-Day Weather Forecast

Almanac

Astronomy

Feb. 19, 2017 Rise Set
Actual Time
Civil Twilight
Nautical Twilight
Astronomical Twilight
Moon
Length of Visible Light
Length of Day
Tomorrow will be .
, % of the Moon is Illuminated

Today's Extremes

State Highs State Lows

Community

WunderPhotos

Upload Photos

1,962,540 photos uploaded!

WunderBlog® & News

Nearby

Air Quality

  Air Quality AQ Index Pollutant
Not available.

Snow Depth

Station Depth Elevation

Earthquake Activity

City Distance Mag. Time & Date
Minimum magnitude displayed is 2.5.

Coastal Water Temperatures

Place Temperature

Stations

Nearby Weather Stations

Station Location Temp. Windchill Dew Point Humidity Wind Precip. Elev Updated Type
                   

Watches & Warnings

Small Craft Advisory
Issued: 8:46 PM PST Feb. 19, 2017 – National Weather Service

... Small Craft Advisory remains in effect until midnight PST
tonight...

* winds... southeast 15 to 25 knots... easing to 20 knots or less
after midnight.

* Waves/seas... wind waves 2 to 4 feet this evening.

Precautionary/preparedness actions...

A Small Craft Advisory means that wind speeds of 21 to 33 knots are
expected to produce hazardous wave conditions to small craft.
Inexperienced mariners... especially those operating smaller vessels
should avoid navigating in these conditions.